This is the latest recevied weather packets stored in our database for station/object EFHKFMI. If no packets are shown the sender has not sent any weather packets the latest 1 day(s).
| Time | Temp. | Humidity | Pressure | Rain* | Wind** | Luminosity | Snow |
|---|---|---|---|---|---|---|---|
| 1777988836 | 11.11° C | 32% | 1004.6 hPa | 0 mm | 5.81 m/s, 274° | - | - |
| 1777987635 | 11.11° C | 35% | 1004.6 hPa | 0 mm | 6.26 m/s, 284° | - | - |
| 1777986435 | 10° C | 40% | 1004.6 hPa | 0 mm | 4.92 m/s, 297° | - | - |
| 1777985235 | 11.67° C | 38% | 1004.5 hPa | 0 mm | 7.15 m/s, 278° | - | - |
| 1777984035 | 11.11° C | 40% | 1004.1 hPa | 0 mm | 6.71 m/s, 279° | - | - |
| 1777982835 | 9.44° C | 45% | 1004.1 hPa | 0 mm | 7.15 m/s, 309° | - | - |
| 1777981635 | 11.67° C | 40% | 1003.7 hPa | 0 mm | 6.71 m/s, 277° | - | - |
| 1777980435 | 10° C | 44% | 1003.6 hPa | 0 mm | 8.05 m/s, 293° | - | - |
| 1777979235 | 12.22° C | 38% | 1003.2 hPa | 0 mm | 8.05 m/s, 270° | - | - |
| 1777978035 | 11.67° C | 39% | 1003.1 hPa | 0 mm | 8.49 m/s, 286° | - | - |
| 1777976835 | 11.67° C | 36% | 1002.6 hPa | 0 mm | 7.15 m/s, 276° | - | - |
| 1777975635 | 11.67° C | 44% | 1002.3 hPa | 0 mm | 8.49 m/s, 293° | - | - |
| 1777974435 | 12.22° C | 40% | 1002.1 hPa | 0 mm | 8.49 m/s, 287° | - | - |
| 1777973234 | 12.22° C | 47% | 1001.7 hPa | 0 mm | 7.6 m/s, 281° | - | - |
| 1777972035 | 11.67° C | 51% | 1001.4 hPa | 0 mm | 7.6 m/s, 294° | - | - |
| 1777970835 | 13.33° C | 46% | 1001 hPa | 0 mm | 9.39 m/s, 256° | - | - |
| 1777969634 | 11.11° C | 49% | 1001 hPa | 0 mm | 8.94 m/s, 264° | - | - |
| 1777968434 | 11.67° C | 48% | 1000.9 hPa | 0 mm | 8.49 m/s, 271° | - | - |
| 1777967234 | 12.78° C | 50% | 1000.7 hPa | 0 mm | 7.6 m/s, 257° | - | - |
| 1777966034 | 12.22° C | 52% | 1000.6 hPa | 0 mm | 7.15 m/s, 252° | - | - |
| 1777964834 | 11.67° C | 57% | 1000.6 hPa | 0 mm | 5.36 m/s, 246° | - | - |
| 1777963634 | 10° C | 63% | 1000.6 hPa | 0 mm | 6.71 m/s, 238° | - | - |
| 1777962434 | 10° C | 65% | 1000.5 hPa | 0 mm | 6.26 m/s, 236° | - | - |
* Rain latest hour (hover to see other rain measurements)
** Current wind speed in m/s (hover to see current wind gust speed)